Time;durP1;ratioP1;P1;durP2;ratioP2;P2;SDS_P1;SDS_P2;PMS_P1;PMS_P2;Temp;Humidity;BMP_temperature;BMP_pressure;BME280_temperature;BME280_humidity;BME280_pressure;Samples;Min_cycle;Max_cycle;Signal;HPM_P1;HPM_P2
2023/10/14 00:01:11;;;;;;;;;;;;;;;;;;109370;1251;60345;-79
2023/10/14 00:03:37;;;;;;;;;;;;;;;;;;109370;1251;59882;-79
2023/10/14 00:06:06;;;;;;;;;;;;;;;;;;109258;1252;59903;-79
2023/10/14 00:08:33;;;;;;;;;;;;;;;;;;109204;1252;60431;-80
2023/10/14 00:10:59;;;;;;;;;;;;;;;;;;109156;1252;60561;-79
2023/10/14 00:13:30;;;;;;;;;;;;;;;;;;109205;1252;60420;-80
2023/10/14 00:16:01;;;;;;;;;;;;;;;;;;109198;1252;59938;-79
2023/10/14 00:18:27;;;;;;;;;;;;;;;;;;109240;1252;63753;-80
2023/10/14 00:20:54;;;;;;;;;;;;;;;;;;109240;1252;60582;-79
2023/10/14 00:23:24;;;;;;;;;;;;;;;;;;109157;1253;60252;-79
2023/10/14 00:25:51;;;;;;;;;;;;;;;;;;109173;1252;60557;-79
2023/10/14 00:28:19;;;;;;;;;;;;;;;;;;109201;1252;60091;-79
2023/10/14 00:30:46;;;;;;;;;;;;;;;;;;109204;1252;62741;-80
2023/10/14 00:33:12;;;;;;;;;;;;;;;;;;109191;1253;60101;-79
2023/10/14 00:35:41;;;;;;;;;;;;;;;;;;109218;1253;60426;-80
2023/10/14 00:38:14;;;;;;;;;;;;;;;;;;109201;1252;60185;-80
2023/10/14 00:40:45;;;;;;;;;;;;;;;;;;109191;1252;59808;-79
2023/10/14 00:43:11;;;;;;;;;;;;;;;;;;109237;1252;62499;-79
2023/10/14 00:45:43;;;;;;;;;;;;;;;;;;109241;1251;59814;-79
2023/10/14 00:48:11;;;;;;;;;;;;;;;;;;109338;1251;59868;-79
2023/10/14 00:50:41;;;;;;;;;;;;;;;;;;109363;1251;60465;-79
2023/10/14 00:53:07;;;;;;;;;;;;;;;;;;109416;1251;59954;-79
2023/10/14 00:55:53;;;;;;;;;;;;;;;;;;109356;1251;62296;-80
2023/10/14 00:58:28;;;;;;;;;;;;;;;;;;109391;1251;60748;-79
2023/10/14 01:00:57;;;;;;;;;;;;;;;;;;109324;1252;60086;-79
2023/10/14 01:03:24;;;;;;;;;;;;;;;;;;109364;1251;59825;-80
2023/10/14 01:05:50;;;;;;;;;;;;;;;;;;109243;1252;60339;-80
2023/10/14 01:08:18;;;;;;;;;;;;;;;;;;109177;1253;60196;-80
2023/10/14 01:10:45;;;;;;;;;;;;;;;;;;109260;1252;60532;-80
2023/10/14 01:13:14;;;;;;;;;;;;;;;;;;109098;1252;159133;-80
2023/10/14 01:15:43;;;;;;;;;;;;;;;;;;109199;1253;60286;-80
2023/10/14 01:18:14;;;;;;;;;;;;;;;;;;109325;1252;60467;-79
2023/10/14 01:20:40;;;;;;;;;;;;;;;;;;109247;1252;62388;-79
2023/10/14 01:23:07;;;;;;;;;;;;;;;;;;109231;1252;60196;-80
2023/10/14 01:25:41;;;;;;;;;;;;;;;;;;109231;1253;59897;-80
2023/10/14 01:28:15;;;;;;;;;;;;;;;;;;109244;1252;59817;-79
2023/10/14 01:30:42;;;;;;;;;;;;;;;;;;109246;1252;60239;-79
2023/10/14 01:33:15;;;;;;;;;;;;;;;;;;109231;1252;61175;-80
2023/10/14 01:35:45;;;;;;;;;;;;;;;;;;109228;1252;59887;-79
2023/10/14 01:38:11;;;;;;;;;;;;;;;;;;109184;1252;60269;-79
2023/10/14 01:40:41;;;;;;;;;;;;;;;;;;109169;1253;60589;-79
2023/10/14 01:43:08;;;;;;;;;;;;;;;;;;109232;1252;59769;-79
2023/10/14 01:45:48;;;;;;;;;;;;;;;;;;109261;1252;61417;-79
2023/10/14 01:48:14;;;;;;;;;;;;;;;;;;109414;1251;59916;-79
2023/10/14 01:50:44;;;;;;;;;;;;;;;;;;109387;1251;60192;-79
2023/10/14 01:53:11;;;;;;;;;;;;;;;;;;109355;1251;59811;-80
2023/10/14 01:55:38;;;;;;;;;;;;;;;;;;109382;1251;60080;-80
2023/10/14 01:58:09;;;;;;;;;;;;;;;;;;109358;1251;63545;-79
2023/10/14 02:00:37;;;;;;;;;;;;;;;;;;109343;1251;59744;-79
2023/10/14 02:03:06;;;;;;;;;;;;;;;;;;109386;1253;60207;-79
2023/10/14 02:05:40;;;;;;;;;;;;;;;;;;109287;1252;60288;-79
2023/10/14 02:08:13;;;;;;;;;;;;;;;;;;109261;1252;59895;-79
2023/10/14 02:10:39;;;;;;;;;;;;;;;;;;109229;1253;62527;-79
2023/10/14 02:13:06;;;;;;;;;;;;;;;;;;109219;1252;59828;-79
2023/10/14 02:15:32;;;;;;;;;;;;;;;;;;109208;1252;59787;-79
2023/10/14 02:17:58;;;;;;;;;;;;;;;;;;109223;1252;60013;-79
2023/10/14 02:20:28;;;;;;;;;;;;;;;;;;109261;1252;59849;-79
2023/10/14 02:22:57;;;;;;;;;;;;;;;;;;109233;1252;63321;-79
2023/10/14 02:25:27;;;;;;;;;;;;;;;;;;109243;1252;59900;-79
2023/10/14 02:27:54;;;;;;;;;;;;;;;;;;109226;1252;60555;-79
2023/10/14 02:30:20;;;;;;;;;;;;;;;;;;109227;1252;59837;-79
2023/10/14 02:32:48;;;;;;;;;;;;;;;;;;109230;1252;59869;-79
2023/10/14 02:35:17;;;;;;;;;;;;;;;;;;109232;1252;62700;-79
2023/10/14 02:37:48;;;;;;;;;;;;;;;;;;109266;1252;60460;-79
2023/10/14 02:40:24;;;;;;;;;;;;;;;;;;109305;1252;60636;-79
2023/10/14 02:42:57;;;;;;;;;;;;;;;;;;109256;1253;60462;-79
2023/10/14 02:45:23;;;;;;;;;;;;;;;;;;109228;1252;60406;-79
2023/10/14 02:47:50;;;;;;;;;;;;;;;;;;109403;1251;60576;-79
2023/10/14 02:50:23;;;;;;;;;;;;;;;;;;109392;1251;60230;-79
2023/10/14 02:52:50;;;;;;;;;;;;;;;;;;109334;1251;60750;-79
2023/10/14 02:55:25;;;;;;;;;;;;;;;;;;109321;1251;60655;-79
2023/10/14 02:57:52;;;;;;;;;;;;;;;;;;109332;1254;60077;-79
2023/10/14 03:00:29;;;;;;;;;;;;;;;;;;109363;1251;60460;-79
2023/10/14 03:03:02;;;;;;;;;;;;;;;;;;109384;1251;59945;-79
2023/10/14 03:08:34;;;;;;;;;;;;;;;;;;108681;1257;60675;-80
2023/10/14 03:11:15;;;;;;;;;;;;;;;;;;108662;1258;61616;-80
2023/10/14 03:13:42;;;;;;;;;;;;;;;;;;108954;1254;63378;-79
2023/10/14 03:16:08;;;;;;;;;;;;;;;;;;109176;1253;59840;-79
2023/10/14 03:18:38;;;;;;;;;;;;;;;;;;109205;1252;60990;-80
2023/10/14 03:21:09;;;;;;;;;;;;;;;;;;109236;1252;59920;-79
2023/10/14 03:23:35;;;;;;;;;;;;;;;;;;109238;1252;59855;-79
2023/10/14 03:26:14;;;;;;;;;;;;;;;;;;109207;1252;60429;-80
2023/10/14 03:28:41;;;;;;;;;;;;;;;;;;109186;1252;59787;-79
2023/10/14 03:31:08;;;;;;;;;;;;;;;;;;109168;1253;60402;-80
2023/10/14 03:33:44;;;;;;;;;;;;;;;;;;109167;1252;60416;-80
2023/10/14 03:36:15;;;;;;;;;;;;;;;;;;109229;1252;60035;-79
2023/10/14 03:38:42;;;;;;;;;;;;;;;;;;109194;1252;62759;-79
2023/10/14 03:41:18;;;;;;;;;;;;;;;;;;109221;1252;60551;-80
2023/10/14 03:43:54;;;;;;;;;;;;;;;;;;109192;1253;60856;-80
2023/10/14 03:46:29;;;;;;;;;;;;;;;;;;109192;1252;60407;-79
2023/10/14 03:48:55;;;;;;;;;;;;;;;;;;109220;1253;60331;-79
2023/10/14 03:51:25;;;;;;;;;;;;;;;;;;109241;1252;59871;-79
2023/10/14 03:53:54;;;;;;;;;;;;;;;;;;109243;1253;59948;-79
2023/10/14 03:56:21;;;;;;;;;;;;;;;;;;109226;1252;59881;-79
2023/10/14 03:58:48;;;;;;;;;;;;;;;;;;109186;1253;60528;-79
2023/10/14 04:01:22;;;;;;;;;;;;;;;;;;109256;1253;60533;-79
2023/10/14 04:03:52;;;;;;;;;;;;;;;;;;109245;1252;62981;-80
2023/10/14 04:06:19;;;;;;;;;;;;;;;;;;109214;1252;59840;-80
2023/10/14 04:08:49;;;;;;;;;;;;;;;;;;109205;1252;60508;-79
2023/10/14 04:11:25;;;;;;;;;;;;;;;;;;109239;1252;59891;-80
2023/10/14 04:13:58;;;;;;;;;;;;;;;;;;109230;1252;59621;-79
2023/10/14 04:16:28;;;;;;;;;;;;;;;;;;109218;1252;63687;-80
2023/10/14 04:19:01;;;;;;;;;;;;;;;;;;109282;1252;60491;-80
2023/10/14 04:21:35;;;;;;;;;;;;;;;;;;109182;1252;60482;-80
2023/10/14 04:26:43;;;;;;;;;;;;;;;;;;109188;1252;60478;-79
2023/10/14 04:29:22;;;;;;;;;;;;;;;;;;109174;1252;60483;-80
2023/10/14 04:31:55;;;;;;;;;;;;;;;;;;109231;1252;59779;-80
2023/10/14 04:34:22;;;;;;;;;;;;;;;;;;109186;1252;59869;-79
2023/10/14 04:36:54;;;;;;;;;;;;;;;;;;109200;1253;60444;-79
2023/10/14 04:39:31;;;;;;;;;;;;;;;;;;109206;1252;59704;-79
2023/10/14 04:44:45;;;;;;;;;;;;;;;;;;109248;1252;59988;-79
2023/10/14 04:47:19;;;;;;;;;;;;;;;;;;109244;1252;60406;-79
2023/10/14 04:49:51;;;;;;;;;;;;;;;;;;109250;1252;59870;-80
2023/10/14 04:52:18;;;;;;;;;;;;;;;;;;109255;1252;60137;-79
2023/10/14 04:55:07;;;;;;;;;;;;;;;;;;109263;1253;63788;-80
2023/10/14 04:57:40;;;;;;;;;;;;;;;;;;109227;1252;59909;-80
2023/10/14 05:00:08;;;;;;;;;;;;;;;;;;109292;1253;60423;-80
2023/10/14 05:02:38;;;;;;;;;;;;;;;;;;109210;1253;60329;-80
2023/10/14 05:05:07;;;;;;;;;;;;;;;;;;109175;1252;60383;-80
2023/10/14 05:07:35;;;;;;;;;;;;;;;;;;109184;1253;62805;-80
2023/10/14 05:10:10;;;;;;;;;;;;;;;;;;109238;1252;60569;-80
2023/10/14 05:12:40;;;;;;;;;;;;;;;;;;109224;1252;60271;-80
2023/10/14 05:15:19;;;;;;;;;;;;;;;;;;109227;1252;59906;-80
2023/10/14 05:17:45;;;;;;;;;;;;;;;;;;109228;1252;60290;-80
2023/10/14 05:20:38;;;;;;;;;;;;;;;;;;109261;1252;60289;-80
2023/10/14 05:23:05;;;;;;;;;;;;;;;;;;109234;1253;60486;-80
2023/10/14 05:25:31;;;;;;;;;;;;;;;;;;109242;1252;60467;-80
2023/10/14 05:27:58;;;;;;;;;;;;;;;;;;109216;1253;60347;-80
2023/10/14 05:30:24;;;;;;;;;;;;;;;;;;109201;1253;59872;-80
2023/10/14 05:32:51;;;;;;;;;;;;;;;;;;109216;1252;60521;-80
2023/10/14 05:35:17;;;;;;;;;;;;;;;;;;109211;1253;60260;-80
2023/10/14 05:37:45;;;;;;;;;;;;;;;;;;109239;1253;60530;-80
2023/10/14 05:40:15;;;;;;;;;;;;;;;;;;109136;1253;60123;-80
2023/10/14 05:42:48;;;;;;;;;;;;;;;;;;109215;1253;60406;-80
2023/10/14 05:45:14;;;;;;;;;;;;;;;;;;109223;1252;62869;-80
2023/10/14 05:47:42;;;;;;;;;;;;;;;;;;109377;1251;59882;-80
2023/10/14 05:50:10;;;;;;;;;;;;;;;;;;109390;1251;59873;-80
2023/10/14 05:52:38;;;;;;;;;;;;;;;;;;109376;1251;59887;-80
2023/10/14 05:55:05;;;;;;;;;;;;;;;;;;109413;1251;59865;-80
2023/10/14 05:57:34;;;;;;;;;;;;;;;;;;109380;1251;62455;-80
2023/10/14 06:00:02;;;;;;;;;;;;;;;;;;109378;1251;60410;-80
2023/10/14 06:02:28;;;;;;;;;;;;;;;;;;109373;1251;59866;-80
2023/10/14 06:04:54;;;;;;;;;;;;;;;;;;109295;1253;59883;-80
2023/10/14 06:07:21;;;;;;;;;;;;;;;;;;109314;1252;59959;-80
2023/10/14 06:09:47;;;;;;;;;;;;;;;;;;109201;1252;60007;-80
2023/10/14 06:12:14;;;;;;;;;;;;;;;;;;109232;1253;59797;-80
2023/10/14 06:14:40;;;;;;;;;;;;;;;;;;109259;1253;59884;-81
2023/10/14 06:17:07;;;;;;;;;;;;;;;;;;109236;1253;60439;-80
2023/10/14 06:19:36;;;;;;;;;;;;;;;;;;109209;1253;59807;-80
2023/10/14 06:22:02;;;;;;;;;;;;;;;;;;109212;1253;63673;-80
2023/10/14 06:24:31;;;;;;;;;;;;;;;;;;109194;1253;60458;-80
2023/10/14 06:27:20;;;;;;;;;;;;;;;;;;109235;1252;60583;-80
2023/10/14 06:29:47;;;;;;;;;;;;;;;;;;109226;1253;60917;-80
2023/10/14 06:32:13;;;;;;;;;;;;;;;;;;109228;1252;60108;-80
2023/10/14 06:34:40;;;;;;;;;;;;;;;;;;109240;1252;60136;-80
2023/10/14 06:37:07;;;;;;;;;;;;;;;;;;109212;1253;60448;-80
2023/10/14 06:39:40;;;;;;;;;;;;;;;;;;109255;1253;60488;-80
2023/10/14 06:42:07;;;;;;;;;;;;;;;;;;109184;1253;60196;-80
2023/10/14 06:44:33;;;;;;;;;;;;;;;;;;109239;1252;59973;-80
2023/10/14 06:47:00;;;;;;;;;;;;;;;;;;109312;1252;60263;-80
2023/10/14 06:49:36;;;;;;;;;;;;;;;;;;109339;1251;60553;-80
2023/10/14 06:52:04;;;;;;;;;;;;;;;;;;109262;1253;60294;-80
2023/10/14 06:54:36;;;;;;;;;;;;;;;;;;109290;1254;60406;-80
2023/10/14 06:57:07;;;;;;;;;;;;;;;;;;109193;1253;59815;-80
2023/10/14 06:59:35;;;;;;;;;;;;;;;;;;109258;1251;63439;-80
2023/10/14 07:02:02;;;;;;;;;;;;;;;;;;109358;1251;60088;-80
2023/10/14 07:04:28;;;;;;;;;;;;;;;;;;109315;1252;59810;-80
2023/10/14 07:06:58;;;;;;;;;;;;;;;;;;109267;1252;60447;-81
2023/10/14 07:09:27;;;;;;;;;;;;;;;;;;109232;1253;59863;-80
2023/10/14 07:11:57;;;;;;;;;;;;;;;;;;109387;1251;61291;-81
2023/10/14 07:14:23;;;;;;;;;;;;;;;;;;109416;1251;60443;-80
2023/10/14 07:16:50;;;;;;;;;;;;;;;;;;109389;1252;60660;-81
2023/10/14 07:19:18;;;;;;;;;;;;;;;;;;109299;1254;60474;-80
2023/10/14 07:21:45;;;;;;;;;;;;;;;;;;109290;1253;59925;-81
2023/10/14 07:24:14;;;;;;;;;;;;;;;;;;109238;1253;60933;-81
2023/10/14 07:26:41;;;;;;;;;;;;;;;;;;109266;1253;60425;-81
2023/10/14 07:29:07;;;;;;;;;;;;;;;;;;109201;1253;59810;-81
2023/10/14 07:31:36;;;;;;;;;;;;;;;;;;109211;1253;60133;-81
2023/10/14 07:34:02;;;;;;;;;;;;;;;;;;109232;1252;59848;-81
2023/10/14 07:36:29;;;;;;;;;;;;;;;;;;109239;1253;62014;-81
2023/10/14 07:39:09;;;;;;;;;;;;;;;;;;109235;1253;60344;-81
2023/10/14 07:41:36;;;;;;;;;;;;;;;;;;109216;1253;60864;-80
2023/10/14 07:44:09;;;;;;;;;;;;;;;;;;109240;1253;59931;-80
2023/10/14 07:46:35;;;;;;;;;;;;;;;;;;109344;1253;60243;-80
2023/10/14 07:49:02;;;;;;;;;;;;;;;;;;109386;1251;60416;-81
2023/10/14 07:51:28;;;;;;;;;;;;;;;;;;109304;1251;61638;-80
2023/10/14 07:53:55;;;;;;;;;;;;;;;;;;109308;1253;60431;-81
2023/10/14 07:56:23;;;;;;;;;;;;;;;;;;109329;1253;60245;-80
2023/10/14 07:58:52;;;;;;;;;;;;;;;;;;109363;1253;60139;-80
2023/10/14 08:01:22;;;;;;;;;;;;;;;;;;109220;1252;61979;-80
2023/10/14 08:03:49;;;;;;;;;;;;;;;;;;109241;1257;59815;-81
2023/10/14 08:06:17;;;;;;;;;;;;;;;;;;109198;1252;60400;-80
2023/10/14 08:08:47;;;;;;;;;;;;;;;;;;109230;1252;59874;-81
2023/10/14 08:11:14;;;;;;;;;;;;;;;;;;109242;1252;59833;-81
2023/10/14 08:13:43;;;;;;;;;;;;;;;;;;109251;1253;59727;-81
2023/10/14 08:16:11;;;;;;;;;;;;;;;;;;109228;1252;60301;-82
2023/10/14 08:18:41;;;;;;;;;;;;;;;;;;109235;1252;60149;-82
2023/10/14 08:21:09;;;;;;;;;;;;;;;;;;109295;1253;60585;-82
2023/10/14 08:23:36;;;;;;;;;;;;;;;;;;109221;1252;60039;-82
2023/10/14 08:26:03;;;;;;;;;;;;;;;;;;109208;1253;63142;-82
2023/10/14 08:28:32;;;;;;;;;;;;;;;;;;109224;1253;59904;-82
2023/10/14 08:30:59;;;;;;;;;;;;;;;;;;109223;1256;60420;-82
2023/10/14 08:33:25;;;;;;;;;;;;;;;;;;109224;1253;59790;-82
2023/10/14 08:35:52;;;;;;;;;;;;;;;;;;109289;1253;59999;-82
2023/10/14 08:38:19;;;;;;;;;;;;;;;;;;109223;1253;60473;-82
2023/10/14 08:40:49;;;;;;;;;;;;;;;;;;109252;1253;60145;-81
2023/10/14 08:43:18;;;;;;;;;;;;;;;;;;109227;1252;59914;-81
2023/10/14 08:45:47;;;;;;;;;;;;;;;;;;109263;1252;59803;-81
2023/10/14 08:48:14;;;;;;;;;;;;;;;;;;109376;1254;59905;-81
2023/10/14 08:50:41;;;;;;;;;;;;;;;;;;109367;1253;63413;-81
2023/10/14 08:53:07;;;;;;;;;;;;;;;;;;109390;1251;59839;-81
2023/10/14 08:55:33;;;;;;;;;;;;;;;;;;109382;1251;60162;-81
2023/10/14 08:58:04;;;;;;;;;;;;;;;;;;109377;1251;59832;-81
2023/10/14 09:00:31;;;;;;;;;;;;;;;;;;109256;1253;60371;-81
2023/10/14 09:03:00;;;;;;;;;;;;;;;;;;109308;1252;59771;-81
2023/10/14 09:05:28;;;;;;;;;;;;;;;;;;109259;1253;60518;-81
2023/10/14 09:07:55;;;;;;;;;;;;;;;;;;109232;1253;60852;-81
2023/10/14 09:10:24;;;;;;;;;;;;;;;;;;109246;1252;59864;-81
2023/10/14 09:12:51;;;;;;;;;;;;;;;;;;109229;1253;59724;-81
2023/10/14 09:15:20;;;;;;;;;;;;;;;;;;109275;1253;59946;-81
2023/10/14 09:17:47;;;;;;;;;;;;;;;;;;109215;1253;60416;-81
2023/10/14 09:20:13;;;;;;;;;;;;;;;;;;109201;1253;60290;-81
2023/10/14 09:22:39;;;;;;;;;;;;;;;;;;109200;1253;60385;-80
2023/10/14 09:25:06;;;;;;;;;;;;;;;;;;109241;1253;60593;-81
2023/10/14 09:27:32;;;;;;;;;;;;;;;;;;109248;1252;59973;-80
2023/10/14 09:29:58;;;;;;;;;;;;;;;;;;109236;1253;59812;-81
2023/10/14 09:32:25;;;;;;;;;;;;;;;;;;109234;1253;60371;-81
2023/10/14 09:34:51;;;;;;;;;;;;;;;;;;109251;1253;60235;-81
2023/10/14 09:37:17;;;;;;;;;;;;;;;;;;109224;1253;59857;-81
2023/10/14 09:39:44;;;;;;;;;;;;;;;;;;109269;1253;60526;-81
2023/10/14 09:42:11;;;;;;;;;;;;;;;;;;109294;1253;60419;-81
2023/10/14 09:44:37;;;;;;;;;;;;;;;;;;109241;1253;60068;-81
2023/10/14 09:47:03;;;;;;;;;;;;;;;;;;109247;1253;60530;-81
2023/10/14 09:49:29;;;;;;;;;;;;;;;;;;109250;1253;60491;-81
2023/10/14 09:51:56;;;;;;;;;;;;;;;;;;109227;1253;59850;-80
2023/10/14 09:54:22;;;;;;;;;;;;;;;;;;109225;1253;60422;-80
2023/10/14 09:56:50;;;;;;;;;;;;;;;;;;109238;1253;60598;-80
2023/10/14 09:59:16;;;;;;;;;;;;;;;;;;109329;1251;60141;-81
2023/10/14 10:01:43;;;;;;;;;;;;;;;;;;109354;1251;60645;-82
2023/10/14 10:04:10;;;;;;;;;;;;;;;;;;109301;1253;59901;-81
2023/10/14 10:06:37;;;;;;;;;;;;;;;;;;109282;1253;60126;-80
2023/10/14 10:09:03;;;;;;;;;;;;;;;;;;109227;1253;59744;-80
2023/10/14 10:11:29;;;;;;;;;;;;;;;;;;109233;1253;59924;-81
2023/10/14 10:13:58;;;;;;;;;;;;;;;;;;109267;1253;60774;-80
2023/10/14 10:16:24;;;;;;;;;;;;;;;;;;109240;1253;63723;-80
2023/10/14 10:18:51;;;;;;;;;;;;;;;;;;109239;1253;60158;-81
2023/10/14 10:21:18;;;;;;;;;;;;;;;;;;109225;1253;60539;-81
2023/10/14 10:23:44;;;;;;;;;;;;;;;;;;109224;1253;60315;-81
2023/10/14 10:26:12;;;;;;;;;;;;;;;;;;109248;1252;60361;-81
2023/10/14 10:28:38;;;;;;;;;;;;;;;;;;109222;1256;62601;-81
2023/10/14 10:31:05;;;;;;;;;;;;;;;;;;109230;1253;60373;-81
2023/10/14 10:33:31;;;;;;;;;;;;;;;;;;109236;1253;60469;-80
2023/10/14 10:35:58;;;;;;;;;;;;;;;;;;109232;1253;60561;-81
2023/10/14 10:38:24;;;;;;;;;;;;;;;;;;109227;1253;59853;-81
2023/10/14 10:40:52;;;;;;;;;;;;;;;;;;109283;1253;60256;-81
2023/10/14 10:43:18;;;;;;;;;;;;;;;;;;109232;1254;60480;-81
2023/10/14 10:45:44;;;;;;;;;;;;;;;;;;109277;1253;59974;-81
2023/10/14 10:48:14;;;;;;;;;;;;;;;;;;109258;1253;59892;-81
2023/10/14 10:50:40;;;;;;;;;;;;;;;;;;109336;1251;59846;-81
2023/10/14 10:53:07;;;;;;;;;;;;;;;;;;109207;1254;60480;-81
2023/10/14 10:55:36;;;;;;;;;;;;;;;;;;109288;1251;59751;-81
2023/10/14 10:58:02;;;;;;;;;;;;;;;;;;109355;1251;60256;-81
2023/10/14 11:00:30;;;;;;;;;;;;;;;;;;109365;1251;59850;-81
2023/10/14 11:02:56;;;;;;;;;;;;;;;;;;109382;1254;60353;-81
2023/10/14 11:05:24;;;;;;;;;;;;;;;;;;109301;1254;59829;-81
2023/10/14 11:07:52;;;;;;;;;;;;;;;;;;109236;1253;59862;-81
2023/10/14 11:10:18;;;;;;;;;;;;;;;;;;109248;1254;60114;-81
2023/10/14 11:12:44;;;;;;;;;;;;;;;;;;109236;1254;60727;-81
2023/10/14 11:15:11;;;;;;;;;;;;;;;;;;109245;1254;60482;-81
2023/10/14 11:17:37;;;;;;;;;;;;;;;;;;109382;1252;59993;-81
2023/10/14 11:20:05;;;;;;;;;;;;;;;;;;109251;1256;59798;-81
2023/10/14 11:22:31;;;;;;;;;;;;;;;;;;109234;1256;60498;-81
2023/10/14 11:24:58;;;;;;;;;;;;;;;;;;109195;1254;60171;-81
2023/10/14 11:27:24;;;;;;;;;;;;;;;;;;109190;1252;60432;-81
2023/10/14 11:29:50;;;;;;;;;;;;;;;;;;109187;1253;60043;-81
2023/10/14 11:32:17;;;;;;;;;;;;;;;;;;109205;1254;59867;-81
2023/10/14 11:34:47;;;;;;;;;;;;;;;;;;109219;1253;60475;-81
2023/10/14 11:37:15;;;;;;;;;;;;;;;;;;109203;1254;60011;-81
2023/10/14 11:39:42;;;;;;;;;;;;;;;;;;109239;1254;59756;-81
2023/10/14 11:42:08;;;;;;;;;;;;;;;;;;109253;1254;60084;-81
2023/10/14 11:44:36;;;;;;;;;;;;;;;;;;109241;1253;60427;-81
2023/10/14 11:47:02;;;;;;;;;;;;;;;;;;109315;1251;60771;-81
2023/10/14 11:49:28;;;;;;;;;;;;;;;;;;109372;1255;59837;-81
2023/10/14 11:51:55;;;;;;;;;;;;;;;;;;109366;1254;59910;-81
2023/10/14 11:54:24;;;;;;;;;;;;;;;;;;109394;1251;60436;-81
2023/10/14 11:56:50;;;;;;;;;;;;;;;;;;109374;1251;60305;-81
2023/10/14 11:59:17;;;;;;;;;;;;;;;;;;109311;1254;60322;-81
2023/10/14 12:01:45;;;;;;;;;;;;;;;;;;109344;1251;60484;-81
2023/10/14 12:04:11;;;;;;;;;;;;;;;;;;109270;1253;59789;-81
2023/10/14 12:06:37;;;;;;;;;;;;;;;;;;109321;1251;60265;-81
2023/10/14 12:09:07;;;;;;;;;;;;;;;;;;109286;1254;59870;-81
2023/10/14 12:11:41;;;;;;;;;;;;;;;;;;109358;1251;60696;-81
2023/10/14 12:14:07;;;;;;;;;;;;;;;;;;109375;1251;60496;-81
2023/10/14 12:16:34;;;;;;;;;;;;;;;;;;109280;1253;59798;-81
2023/10/14 12:19:00;;;;;;;;;;;;;;;;;;109294;1254;60194;-81
2023/10/14 12:21:26;;;;;;;;;;;;;;;;;;109265;1252;60150;-81
2023/10/14 12:23:55;;;;;;;;;;;;;;;;;;109220;1254;59963;-81
2023/10/14 12:26:22;;;;;;;;;;;;;;;;;;109237;1252;59880;-81
2023/10/14 12:28:50;;;;;;;;;;;;;;;;;;109250;1252;59801;-81
2023/10/14 12:31:16;;;;;;;;;;;;;;;;;;109278;1254;62722;-81
2023/10/14 12:33:43;;;;;;;;;;;;;;;;;;109419;1251;59762;-81
2023/10/14 12:36:10;;;;;;;;;;;;;;;;;;109363;1251;60440;-81
2023/10/14 12:38:38;;;;;;;;;;;;;;;;;;109378;1251;59834;-81
2023/10/14 12:41:06;;;;;;;;;;;;;;;;;;109344;1251;60152;-81
2023/10/14 12:43:39;;;;;;;;;;;;;;;;;;109431;1251;61559;-81
2023/10/14 12:46:14;;;;;;;;;;;;;;;;;;109378;1253;59839;-81
2023/10/14 12:48:40;;;;;;;;;;;;;;;;;;109228;1254;60359;-81
2023/10/14 12:51:07;;;;;;;;;;;;;;;;;;109238;1253;59752;-81
2023/10/14 12:53:33;;;;;;;;;;;;;;;;;;109263;1253;59732;-81
2023/10/14 12:56:00;;;;;;;;;;;;;;;;;;109276;1253;60310;-81
2023/10/14 12:58:27;;;;;;;;;;;;;;;;;;109244;1254;60462;-81
2023/10/14 13:00:53;;;;;;;;;;;;;;;;;;109267;1253;60733;-81
2023/10/14 13:03:19;;;;;;;;;;;;;;;;;;109248;1252;60108;-81
2023/10/14 13:05:52;;;;;;;;;;;;;;;;;;109264;1253;60390;-81
2023/10/14 13:08:21;;;;;;;;;;;;;;;;;;109416;1251;62703;-81
2023/10/14 13:10:47;;;;;;;;;;;;;;;;;;109411;1251;59869;-81
2023/10/14 13:13:15;;;;;;;;;;;;;;;;;;109229;1251;171128;-81
2023/10/14 13:15:41;;;;;;;;;;;;;;;;;;109362;1251;59791;-81
2023/10/14 13:18:12;;;;;;;;;;;;;;;;;;109400;1251;59824;-81
2023/10/14 13:20:38;;;;;;;;;;;;;;;;;;109372;1251;62748;-81
2023/10/14 13:23:05;;;;;;;;;;;;;;;;;;109373;1253;59837;-81
2023/10/14 13:25:32;;;;;;;;;;;;;;;;;;109183;1254;60098;-81
2023/10/14 13:28:01;;;;;;;;;;;;;;;;;;109247;1253;60663;-81
2023/10/14 13:30:27;;;;;;;;;;;;;;;;;;109262;1254;59765;-81
2023/10/14 13:32:53;;;;;;;;;;;;;;;;;;109279;1253;60512;-81
2023/10/14 13:35:20;;;;;;;;;;;;;;;;;;109279;1254;60263;-81
2023/10/14 13:37:47;;;;;;;;;;;;;;;;;;109239;1254;60134;-81
2023/10/14 13:40:20;;;;;;;;;;;;;;;;;;109248;1252;60396;-81
2023/10/14 13:42:47;;;;;;;;;;;;;;;;;;109262;1252;59935;-81
2023/10/14 13:45:14;;;;;;;;;;;;;;;;;;109210;1253;59801;-81
2023/10/14 13:47:41;;;;;;;;;;;;;;;;;;109376;1251;60580;-81
2023/10/14 13:50:10;;;;;;;;;;;;;;;;;;109373;1251;59760;-81
2023/10/14 13:52:37;;;;;;;;;;;;;;;;;;109403;1251;60383;-81
2023/10/14 13:55:04;;;;;;;;;;;;;;;;;;109424;1251;60077;-81
2023/10/14 13:57:32;;;;;;;;;;;;;;;;;;109420;1251;63861;-81
2023/10/14 13:59:58;;;;;;;;;;;;;;;;;;109401;1251;59984;-81
2023/10/14 14:02:24;;;;;;;;;;;;;;;;;;109373;1251;60457;-81
2023/10/14 14:04:51;;;;;;;;;;;;;;;;;;109336;1252;60100;-81
2023/10/14 14:07:17;;;;;;;;;;;;;;;;;;109356;1251;59740;-80
2023/10/14 14:09:45;;;;;;;;;;;;;;;;;;109414;1251;60140;-81
2023/10/14 14:12:15;;;;;;;;;;;;;;;;;;109400;1251;60190;-81
2023/10/14 14:14:41;;;;;;;;;;;;;;;;;;109436;1251;60699;-81
2023/10/14 14:17:07;;;;;;;;;;;;;;;;;;109392;1251;60416;-80
2023/10/14 14:19:39;;;;;;;;;;;;;;;;;;109332;1253;59806;-80
2023/10/14 14:22:05;;;;;;;;;;;;;;;;;;109289;1252;63225;-80
2023/10/14 14:24:33;;;;;;;;;;;;;;;;;;109258;1253;60271;-81
2023/10/14 14:26:59;;;;;;;;;;;;;;;;;;109204;1253;60425;-81
2023/10/14 14:29:27;;;;;;;;;;;;;;;;;;109238;1252;59861;-80
2023/10/14 14:31:53;;;;;;;;;;;;;;;;;;109281;1253;60392;-81
2023/10/14 14:34:24;;;;;;;;;;;;;;;;;;109276;1252;60416;-81
2023/10/14 14:36:51;;;;;;;;;;;;;;;;;;109293;1252;60173;-81
2023/10/14 14:39:19;;;;;;;;;;;;;;;;;;109259;1253;59814;-81
2023/10/14 14:41:45;;;;;;;;;;;;;;;;;;109249;1252;60507;-81
2023/10/14 14:44:13;;;;;;;;;;;;;;;;;;109291;1252;60043;-81
2023/10/14 14:46:39;;;;;;;;;;;;;;;;;;109281;1253;62447;-80
2023/10/14 14:49:11;;;;;;;;;;;;;;;;;;109257;1253;59811;-80
2023/10/14 14:51:40;;;;;;;;;;;;;;;;;;109238;1253;60431;-81
2023/10/14 14:54:06;;;;;;;;;;;;;;;;;;109249;1252;61688;-80
2023/10/14 14:56:34;;;;;;;;;;;;;;;;;;109250;1252;60460;-80
2023/10/14 14:59:02;;;;;;;;;;;;;;;;;;109289;1252;62512;-80
2023/10/14 15:01:33;;;;;;;;;;;;;;;;;;109259;1252;60041;-80
2023/10/14 15:03:59;;;;;;;;;;;;;;;;;;109249;1252;59873;-80
2023/10/14 15:06:26;;;;;;;;;;;;;;;;;;109305;1251;59780;-81
2023/10/14 15:14:57;;;;;;;;;;;;;;;;;;109304;1252;60005;-80
2023/10/14 15:17:24;;;;;;;;;;;;;;;;;;109280;1252;60420;-80
2023/10/14 15:19:50;;;;;;;;;;;;;;;;;;109272;1252;59784;-81
2023/10/14 15:22:17;;;;;;;;;;;;;;;;;;109285;1252;60418;-81
2023/10/14 15:24:43;;;;;;;;;;;;;;;;;;109292;1252;60193;-80
2023/10/14 15:27:09;;;;;;;;;;;;;;;;;;109269;1253;60464;-80
2023/10/14 15:29:36;;;;;;;;;;;;;;;;;;109263;1252;60143;-80
2023/10/14 15:32:02;;;;;;;;;;;;;;;;;;109241;1252;60119;-81
2023/10/14 15:34:29;;;;;;;;;;;;;;;;;;109250;1252;59783;-80
2023/10/14 15:36:55;;;;;;;;;;;;;;;;;;109280;1252;60741;-81
2023/10/14 15:39:30;;;;;;;;;;;;;;;;;;109279;1253;60512;-80
2023/10/14 15:41:57;;;;;;;;;;;;;;;;;;109216;1252;60153;-80
2023/10/14 15:44:26;;;;;;;;;;;;;;;;;;109272;1252;59803;-80
2023/10/14 15:46:52;;;;;;;;;;;;;;;;;;109335;1251;59833;-80
2023/10/14 15:49:19;;;;;;;;;;;;;;;;;;109397;1251;59813;-80
2023/10/14 15:51:45;;;;;;;;;;;;;;;;;;109401;1251;59899;-80
2023/10/14 15:54:13;;;;;;;;;;;;;;;;;;109391;1251;60150;-81
2023/10/14 15:56:40;;;;;;;;;;;;;;;;;;109420;1251;59937;-80
2023/10/14 15:59:06;;;;;;;;;;;;;;;;;;109421;1251;59854;-80
2023/10/14 16:01:35;;;;;;;;;;;;;;;;;;109446;1251;59806;-80
2023/10/14 16:04:02;;;;;;;;;;;;;;;;;;109408;1251;59708;-80
2023/10/14 16:06:29;;;;;;;;;;;;;;;;;;109300;1251;60659;-80
2023/10/14 16:08:55;;;;;;;;;;;;;;;;;;109393;1251;60150;-80
2023/10/14 16:11:21;;;;;;;;;;;;;;;;;;109438;1251;60360;-80
2023/10/14 16:13:48;;;;;;;;;;;;;;;;;;109407;1251;60184;-80
2023/10/14 16:16:15;;;;;;;;;;;;;;;;;;109418;1251;59923;-80
2023/10/14 16:18:41;;;;;;;;;;;;;;;;;;109355;1252;59824;-80
2023/10/14 16:21:12;;;;;;;;;;;;;;;;;;109233;1252;59998;-80
2023/10/14 16:23:42;;;;;;;;;;;;;;;;;;109220;1252;59971;-80
2023/10/14 16:26:11;;;;;;;;;;;;;;;;;;109278;1252;61373;-80
2023/10/14 16:28:40;;;;;;;;;;;;;;;;;;109265;1252;60537;-81
2023/10/14 16:31:07;;;;;;;;;;;;;;;;;;109210;1252;60892;-80
2023/10/14 16:33:33;;;;;;;;;;;;;;;;;;109200;1252;59927;-80
2023/10/14 16:35:59;;;;;;;;;;;;;;;;;;109220;1252;60243;-81
2023/10/14 16:38:26;;;;;;;;;;;;;;;;;;109243;1252;59864;-80
2023/10/14 16:40:55;;;;;;;;;;;;;;;;;;109243;1252;60452;-80
2023/10/14 16:43:24;;;;;;;;;;;;;;;;;;109236;1252;60278;-80
2023/10/14 16:45:51;;;;;;;;;;;;;;;;;;109178;1252;59839;-80
2023/10/14 16:48:17;;;;;;;;;;;;;;;;;;109204;1252;60234;-80
2023/10/14 16:50:44;;;;;;;;;;;;;;;;;;109238;1252;63667;-80